createdAt,value
2018-09-09T00:01:32.350Z,88.10
2018-09-09T00:04:06.855Z,87.80
2018-09-09T00:06:42.562Z,88.20
2018-09-09T00:09:22.394Z,88.80
2018-09-09T00:11:58.123Z,88.50
2018-09-09T00:14:32.629Z,88.90
2018-09-09T00:17:09.677Z,88.40
2018-09-09T00:19:44.127Z,88.40
2018-09-09T00:22:18.719Z,88.60
2018-09-09T00:24:54.232Z,88.60
2018-09-09T00:27:29.886Z,89.50
2018-09-09T00:30:08.811Z,89.40
2018-09-09T00:32:43.397Z,89.20
2018-09-09T00:35:17.731Z,88.40
2018-09-09T00:37:52.067Z,88.90
2018-09-09T00:40:27.581Z,89.00
2018-09-09T00:43:03.392Z,89.20
2018-09-09T00:45:40.275Z,89.80
2018-09-09T00:48:15.140Z,89.60
2018-09-09T00:50:56.467Z,89.50
2018-09-09T00:53:36.403Z,88.90
2018-09-09T00:56:10.999Z,89.10
2018-09-09T00:58:45.689Z,89.70
2018-09-09T01:01:21.234Z,90.10
2018-09-09T01:03:55.756Z,90.10
2018-09-09T01:06:31.679Z,89.80
2018-09-09T01:09:08.703Z,90.00
2018-09-09T01:11:44.779Z,90.10
2018-09-09T01:14:19.318Z,89.90
2018-09-09T01:16:55.440Z,90.10
2018-09-09T01:19:30.341Z,90.20
2018-09-09T01:22:04.901Z,90.50
2018-09-09T01:24:40.503Z,90.60
2018-09-09T01:27:16.197Z,90.30
2018-09-09T01:29:50.947Z,90.50
2018-09-09T01:32:26.885Z,90.30
2018-09-09T01:35:05.052Z,90.40
2018-09-09T01:37:40.659Z,90.50
2018-09-09T01:40:19.365Z,90.90
2018-09-09T01:42:53.827Z,90.70
2018-09-09T01:45:31.272Z,90.70
2018-09-09T01:48:05.771Z,90.70
2018-09-09T01:50:40.180Z,90.70
2018-09-09T01:53:14.615Z,91.00
2018-09-09T01:55:49.363Z,91.10
2018-09-09T01:58:23.826Z,91.40
2018-09-09T02:00:59.640Z,91.10
2018-09-09T02:03:34.011Z,91.40
2018-09-09T02:06:09.920Z,91.20
2018-09-09T02:08:44.287Z,91.10
2018-09-09T02:11:19.956Z,90.90
2018-09-09T02:29:25.116Z,91.30
2018-09-09T02:32:01.111Z,91.00
2018-09-09T02:34:35.619Z,90.80
2018-09-09T02:37:11.608Z,90.80
2018-09-09T02:39:47.211Z,90.80
2018-09-09T02:42:21.587Z,90.90
2018-09-09T02:44:55.926Z,91.10
2018-09-09T02:47:30.419Z,90.90
2018-09-09T02:50:04.922Z,90.70
2018-09-09T02:52:39.171Z,90.80
2018-09-09T02:55:13.917Z,91.00
2018-09-09T02:57:48.434Z,91.00
2018-09-09T03:00:24.253Z,90.90
2018-09-09T03:02:58.730Z,91.10
2018-09-09T03:05:34.337Z,91.00
2018-09-09T03:08:10.173Z,91.00
2018-09-09T03:10:46.760Z,91.20
2018-09-09T03:13:21.173Z,91.50
2018-09-09T03:16:07.984Z,91.60
2018-09-09T03:18:42.927Z,91.40
2018-09-09T03:21:17.410Z,91.30
2018-09-09T03:23:52.874Z,91.20
2018-09-09T03:26:28.723Z,91.60
2018-09-09T03:29:04.793Z,91.20
2018-09-09T03:31:40.849Z,91.20
2018-09-09T03:34:15.289Z,91.40
2018-09-09T03:36:50.907Z,91.50
2018-09-09T03:39:25.727Z,91.60
2018-09-09T03:42:00.233Z,91.60
2018-09-09T03:44:34.760Z,91.70
2018-09-09T03:47:09.304Z,91.70
2018-09-09T03:49:43.967Z,92.40
2018-09-09T03:52:18.681Z,92.00
2018-09-09T03:54:53.173Z,91.90
2018-09-09T03:57:27.798Z,91.80
2018-09-09T04:00:03.816Z,91.80
2018-09-09T04:02:38.820Z,91.90
2018-09-09T04:05:14.266Z,91.80
2018-09-09T04:07:52.651Z,92.00
2018-09-09T04:10:28.459Z,91.80
2018-09-09T04:13:04.171Z,91.80
2018-09-09T04:15:38.447Z,91.70
2018-09-09T04:18:14.071Z,92.00
2018-09-09T04:20:48.559Z,91.60
2018-09-09T04:23:23.111Z,91.70
2018-09-09T04:25:58.833Z,91.80
2018-09-09T04:28:33.194Z,91.90
2018-09-09T04:31:09.344Z,91.90
2018-09-09T04:33:45.001Z,91.90
2018-09-09T04:36:19.414Z,91.70
2018-09-09T04:38:53.897Z,91.70
2018-09-09T04:41:28.708Z,91.80
2018-09-09T04:44:03.007Z,91.80
2018-09-09T04:46:38.326Z,91.80
2018-09-09T04:49:12.647Z,91.80
2018-09-09T04:51:47.231Z,91.90
2018-09-09T04:54:21.650Z,91.90
2018-09-09T04:56:56.339Z,92.10
2018-09-09T04:59:32.143Z,92.00
2018-09-09T05:02:06.666Z,91.90
2018-09-09T05:04:43.614Z,92.10
2018-09-09T05:07:19.198Z,92.00
2018-09-09T05:09:58.980Z,92.20
2018-09-09T05:12:33.371Z,92.30
2018-09-09T05:15:07.861Z,92.30
2018-09-09T05:17:43.667Z,92.30
2018-09-09T05:20:21.864Z,92.30
2018-09-09T05:22:56.460Z,92.20
2018-09-09T05:25:32.461Z,92.20
2018-09-09T05:28:08.215Z,92.40
2018-09-09T05:30:44.375Z,92.40
2018-09-09T05:33:18.833Z,92.40
2018-09-09T05:35:53.083Z,92.30
2018-09-09T05:38:27.655Z,92.50
2018-09-09T05:41:02.099Z,92.50
2018-09-09T05:43:36.735Z,92.50
2018-09-09T05:46:11.054Z,92.60
2018-09-09T05:48:49.632Z,92.90
2018-09-09T05:51:24.007Z,92.90
2018-09-09T05:53:58.407Z,93.00
2018-09-09T05:56:33.962Z,92.90
2018-09-09T05:59:14.610Z,92.90
2018-09-09T06:01:49.100Z,93.00
2018-09-09T06:04:25.076Z,93.00
2018-09-09T06:07:00.827Z,92.90
2018-09-09T06:09:36.463Z,92.80
2018-09-09T06:12:12.334Z,92.50
2018-09-09T06:14:46.626Z,92.60
2018-09-09T06:17:22.327Z,92.90
2018-09-09T06:19:56.793Z,93.00
2018-09-09T06:22:31.363Z,92.40
2018-09-09T06:25:07.252Z,92.80
2018-09-09T06:27:42.939Z,93.00
2018-09-09T06:30:18.899Z,92.30
2018-09-09T06:32:53.635Z,92.30
2018-09-09T06:35:27.962Z,92.20
2018-09-09T06:38:02.659Z,92.20
2018-09-09T06:40:37.181Z,92.20
2018-09-09T06:43:11.741Z,92.40
2018-09-09T06:45:47.804Z,91.40
2018-09-09T06:48:22.355Z,92.00
2018-09-09T06:50:56.612Z,92.20
2018-09-09T06:53:31.217Z,92.20
2018-09-09T06:56:05.658Z,92.40
2018-09-09T06:58:40.051Z,92.40
2018-09-09T07:01:15.949Z,91.50
2018-09-09T07:03:50.567Z,91.50
2018-09-09T07:06:26.656Z,91.30
2018-09-09T07:09:05.771Z,91.70
2018-09-09T07:11:41.509Z,90.80
2018-09-09T07:14:17.803Z,90.20
2018-09-09T07:16:53.744Z,90.40
2018-09-09T07:19:28.407Z,90.50
2018-09-09T07:22:03.275Z,89.00
2018-09-09T07:24:38.844Z,89.30
2018-09-09T07:27:14.547Z,89.40
2018-09-09T07:29:49.095Z,89.70
2018-09-09T07:32:25.648Z,89.30
2018-09-09T07:35:00.264Z,89.90
2018-09-09T07:37:36.058Z,90.30
2018-09-09T07:40:10.339Z,90.30
2018-09-09T07:42:44.839Z,89.90
2018-09-09T07:45:19.391Z,90.00
2018-09-09T07:47:53.974Z,90.10
2018-09-09T07:50:28.565Z,89.70
2018-09-09T07:53:03.000Z,88.90
2018-09-09T07:55:37.655Z,89.30
2018-09-09T07:58:12.032Z,89.20
2018-09-09T08:00:50.432Z,88.60
2018-09-09T08:03:24.875Z,86.50
2018-09-09T08:06:10.501Z,86.00
2018-09-09T08:08:46.319Z,85.70
2018-09-09T08:11:21.873Z,86.60
2018-09-09T08:13:56.268Z,86.80
2018-09-09T08:16:32.364Z,85.70
2018-09-09T08:19:07.101Z,85.50
2018-09-09T08:21:41.641Z,84.40
2018-09-09T08:24:17.783Z,84.10
2018-09-09T08:26:53.638Z,83.70
2018-09-09T08:29:29.507Z,81.00
2018-09-09T08:32:05.152Z,80.20
2018-09-09T08:34:39.613Z,81.30
2018-09-09T08:37:13.878Z,81.30
2018-09-09T08:39:48.198Z,83.10
2018-09-09T08:42:22.506Z,84.20
2018-09-09T08:44:56.982Z,83.90
2018-09-09T08:47:31.496Z,84.20
2018-09-09T08:50:06.200Z,81.60
2018-09-09T08:52:41.986Z,81.20
2018-09-09T08:55:16.589Z,80.60
2018-09-09T08:57:50.870Z,80.70
2018-09-09T09:00:26.652Z,80.10
2018-09-09T09:03:01.023Z,78.50
2018-09-09T09:05:37.771Z,75.70
2018-09-09T09:08:14.760Z,75.20
2018-09-09T09:10:50.734Z,76.60
2018-09-09T09:13:25.184Z,79.20
2018-09-09T09:15:59.890Z,78.00
2018-09-09T09:18:35.598Z,75.70
2018-09-09T09:21:11.452Z,74.40
2018-09-09T09:23:45.891Z,74.00
2018-09-09T09:26:21.505Z,77.20
2018-09-09T09:28:55.911Z,76.50
2018-09-09T09:31:31.571Z,75.90
2018-09-09T09:34:05.969Z,75.60
2018-09-09T09:36:40.369Z,74.30
2018-09-09T09:39:14.691Z,74.80
2018-09-09T09:41:49.201Z,72.70
2018-09-09T09:44:23.575Z,72.80
2018-09-09T09:46:58.099Z,70.80
2018-09-09T09:49:32.556Z,70.50
2018-09-09T09:52:07.561Z,71.10
2018-09-09T09:54:42.083Z,69.50
2018-09-09T09:57:17.274Z,69.90
2018-09-09T09:59:52.739Z,70.30
2018-09-09T10:02:28.522Z,72.80
2018-09-09T10:05:03.355Z,72.40
2018-09-09T10:07:39.158Z,71.70
2018-09-09T10:10:15.285Z,70.90
2018-09-09T10:12:49.644Z,72.00
2018-09-09T10:15:24.027Z,69.30
2018-09-09T10:18:00.440Z,67.80
2018-09-09T10:20:36.436Z,67.90
2018-09-09T10:23:10.803Z,66.30
2018-09-09T10:25:46.715Z,65.80
2018-09-09T10:28:21.187Z,64.20
2018-09-09T10:30:57.619Z,64.50
2018-09-09T10:33:32.052Z,66.50
2018-09-09T10:36:06.804Z,66.70
2018-09-09T10:38:41.157Z,66.00
2018-09-09T10:41:15.758Z,64.80
2018-09-09T10:43:50.276Z,64.10
2018-09-09T10:46:24.974Z,64.00
2018-09-09T10:48:59.324Z,61.50
2018-09-09T10:51:34.068Z,58.90
2018-09-09T10:54:09.857Z,59.20
2018-09-09T10:56:44.683Z,60.30
2018-09-09T10:59:20.463Z,60.60
2018-09-09T11:01:56.151Z,58.80
2018-09-09T11:04:30.600Z,58.90
2018-09-09T11:07:07.496Z,58.30
2018-09-09T11:09:44.008Z,58.00
2018-09-09T11:12:23.759Z,58.20
2018-09-09T11:14:59.527Z,58.30
2018-09-09T11:17:35.168Z,57.30
2018-09-09T11:20:09.547Z,57.20
2018-09-09T11:22:43.925Z,57.50
2018-09-09T11:28:01.061Z,57.10
2018-09-09T11:30:37.167Z,57.80
2018-09-09T11:33:11.835Z,57.10
2018-09-09T11:35:47.164Z,55.80
2018-09-09T11:38:21.507Z,56.00
2018-09-09T11:40:55.933Z,54.30
2018-09-09T11:43:30.379Z,54.40
2018-09-09T11:46:05.026Z,54.50
2018-09-09T11:48:39.391Z,54.80
2018-09-09T11:51:15.388Z,53.10
2018-09-09T11:53:49.902Z,50.50
2018-09-09T11:56:26.995Z,51.00
2018-09-09T11:59:02.662Z,53.00
2018-09-09T12:01:37.370Z,53.10
2018-09-09T12:04:11.762Z,52.60
2018-09-09T12:06:47.856Z,53.40
2018-09-09T12:09:23.311Z,50.10
2018-09-09T12:11:58.890Z,50.10
2018-09-09T12:14:34.603Z,51.00
2018-09-09T12:17:10.451Z,51.50
2018-09-09T12:19:44.781Z,52.80
2018-09-09T12:22:19.942Z,53.30
2018-09-09T12:24:55.898Z,52.90
2018-09-09T12:27:32.023Z,52.00
2018-09-09T12:30:11.038Z,52.10
2018-09-09T12:32:45.842Z,50.60
2018-09-09T12:35:21.847Z,49.50
2018-09-09T12:37:56.418Z,47.70
2018-09-09T12:40:30.812Z,47.70
2018-09-09T12:43:11.971Z,48.20
2018-09-09T12:45:51.674Z,47.20
2018-09-09T12:48:32.547Z,48.20
2018-09-09T12:51:08.556Z,48.00
2018-09-09T12:53:43.308Z,48.90
2018-09-09T12:56:17.623Z,48.80
2018-09-09T12:58:56.936Z,47.90
2018-09-09T13:01:31.199Z,47.10
2018-09-09T13:04:05.935Z,47.70
2018-09-09T13:06:41.676Z,47.40
2018-09-09T13:09:17.543Z,47.90
2018-09-09T13:11:53.543Z,47.20
2018-09-09T13:14:28.068Z,46.30
2018-09-09T13:17:10.175Z,45.60
2018-09-09T13:19:44.535Z,44.80
2018-09-09T13:22:19.265Z,44.70
2018-09-09T13:24:56.243Z,44.00
2018-09-09T13:27:31.948Z,43.50
2018-09-09T13:30:10.928Z,42.80
2018-09-09T13:32:53.508Z,42.40
2018-09-09T13:35:27.803Z,42.00
2018-09-09T13:38:03.212Z,42.10
2018-09-09T13:40:37.682Z,42.50
2018-09-09T13:43:12.059Z,42.00
2018-09-09T13:45:46.352Z,42.50
2018-09-09T13:48:22.443Z,42.80
2018-09-09T13:50:56.927Z,42.80
2018-09-09T13:53:31.452Z,43.20
2018-09-09T13:56:05.974Z,41.40
2018-09-09T14:09:08.281Z,42.60
2018-09-09T14:13:09.784Z,43.50
2018-09-09T14:15:44.081Z,47.90
2018-09-09T14:20:53.647Z,46.60
2018-09-09T14:23:28.427Z,46.00
2018-09-09T14:26:04.386Z,42.80
2018-09-09T14:28:38.755Z,44.40
2018-09-09T14:31:14.503Z,41.00
2018-09-09T14:33:49.085Z,41.70
2018-09-09T14:36:23.529Z,41.20
2018-09-09T14:38:57.896Z,40.60
2018-09-09T14:41:32.348Z,42.40
2018-09-09T14:44:08.147Z,41.10
2018-09-09T14:46:42.768Z,40.90
2018-09-09T14:49:18.436Z,41.30
2018-09-09T14:51:53.018Z,41.40
2018-09-09T14:54:28.103Z,43.70
2018-09-09T14:57:02.436Z,41.40
2018-09-09T14:59:39.370Z,41.60
2018-09-09T15:02:15.061Z,41.00
2018-09-09T15:04:49.666Z,40.80
2018-09-09T15:07:32.687Z,39.70
2018-09-09T15:10:08.814Z,43.80
2018-09-09T15:12:44.808Z,40.60
2018-09-09T15:15:20.787Z,42.10
2018-09-09T15:17:56.415Z,41.10
2018-09-09T15:20:30.873Z,40.20
2018-09-09T15:23:05.759Z,37.50
2018-09-09T15:25:45.210Z,39.90
2018-09-09T15:28:19.739Z,39.30
2018-09-09T15:30:55.637Z,38.50
2018-09-09T15:33:30.434Z,37.20
2018-09-09T15:36:05.244Z,35.90
2018-09-09T15:38:39.707Z,36.10
2018-09-09T15:41:17.471Z,35.50
2018-09-09T15:43:52.836Z,34.70
2018-09-09T15:51:36.500Z,35.40
2018-09-09T16:30:30.762Z,34.50
2018-09-09T16:33:05.347Z,39.60
2018-09-09T16:35:40.117Z,39.90
2018-09-09T16:38:15.631Z,40.10
2018-09-09T16:40:50.071Z,40.20
2018-09-09T16:43:24.486Z,40.90
2018-09-09T16:45:58.870Z,41.70
2018-09-09T16:48:33.807Z,41.00
2018-09-09T16:51:08.594Z,41.70
2018-09-09T16:53:44.013Z,42.00
2018-09-09T16:56:27.903Z,42.20
2018-09-09T16:59:04.700Z,42.30
2018-09-09T17:01:41.034Z,42.60
2018-09-09T17:04:17.319Z,42.60
2018-09-09T17:06:54.002Z,42.90
2018-09-09T17:09:29.983Z,42.80
2018-09-09T17:12:06.314Z,43.90
2018-09-09T17:14:41.490Z,44.50
2018-09-09T17:17:17.387Z,46.00
2018-09-09T17:19:53.123Z,46.20
2018-09-09T17:22:27.950Z,45.40
2018-09-09T17:25:03.795Z,45.30
2018-09-09T17:27:41.892Z,45.90
2018-09-09T17:30:18.163Z,46.00
2018-09-09T17:32:54.436Z,46.30
2018-09-09T17:35:29.524Z,46.80
2018-09-09T17:38:04.125Z,47.00
2018-09-09T17:40:38.805Z,48.10
2018-09-09T17:43:14.419Z,49.10
2018-09-09T17:45:51.070Z,56.10
2018-09-09T17:48:27.782Z,57.80
2018-09-09T17:51:02.542Z,58.90
2018-09-09T17:53:37.120Z,59.70
2018-09-09T17:56:11.772Z,62.30
2018-09-09T17:58:48.334Z,62.40
2018-09-09T18:01:24.528Z,63.40
2018-09-09T18:03:58.996Z,63.80
2018-09-09T18:06:35.059Z,64.40
2018-09-09T18:09:11.727Z,63.90
2018-09-09T18:11:47.743Z,65.40
2018-09-09T18:14:22.611Z,66.50
2018-09-09T18:17:00.337Z,62.10
2018-09-09T18:19:35.140Z,65.60
2018-09-09T18:22:09.864Z,67.00
2018-09-09T18:24:49.268Z,67.20
2018-09-09T18:27:26.168Z,67.30
2018-09-09T18:30:18.824Z,66.60
2018-09-09T18:32:54.784Z,60.20
2018-09-09T18:35:29.701Z,67.60
2018-09-09T18:40:45.554Z,69.30
2018-09-09T18:43:20.214Z,70.40
2018-09-09T18:45:58.270Z,70.60
2018-09-09T18:48:33.304Z,71.40
2018-09-09T18:51:08.116Z,72.30
2018-09-09T18:53:42.441Z,72.50
2018-09-09T18:56:17.758Z,72.00
2018-09-09T18:58:57.321Z,71.20
2018-09-09T19:01:32.779Z,73.30
2018-09-09T19:04:07.441Z,74.00
2018-09-09T19:06:47.186Z,73.70
2018-09-09T19:09:27.203Z,75.00
2018-09-09T19:12:06.444Z,71.90
2018-09-09T19:14:41.383Z,74.20
2018-09-09T19:17:20.215Z,75.50
2018-09-09T19:19:55.863Z,75.60
2018-09-09T19:22:30.835Z,78.20
2018-09-09T19:25:10.402Z,82.10
2018-09-09T19:27:59.837Z,83.80
2018-09-09T19:30:38.316Z,83.80
2018-09-09T19:33:16.834Z,84.60
2018-09-09T19:35:51.406Z,84.40
2018-09-09T19:38:26.739Z,85.60
2018-09-09T19:41:01.711Z,83.70
2018-09-09T19:43:41.309Z,81.90
2018-09-09T19:46:15.944Z,81.30
2018-09-09T19:48:50.724Z,82.40
2018-09-09T19:51:25.179Z,83.90
2018-09-09T19:54:03.724Z,83.70
2018-09-09T19:56:39.452Z,83.90
2018-09-09T19:59:15.235Z,84.00
2018-09-09T20:01:50.979Z,84.00
2018-09-09T20:04:26.655Z,83.90
2018-09-09T20:07:02.196Z,84.00
2018-09-09T20:09:37.971Z,84.20
2018-09-09T20:12:13.782Z,83.60
2018-09-09T20:14:51.578Z,83.80
2018-09-09T20:17:29.126Z,83.30
2018-09-09T20:20:05.060Z,83.90
2018-09-09T20:22:40.836Z,82.70
2018-09-09T20:25:16.707Z,82.80
2018-09-09T20:27:52.979Z,83.60
2018-09-09T20:30:29.033Z,83.20
2018-09-09T20:33:03.671Z,83.00
2018-09-09T20:35:38.058Z,82.70
2018-09-09T20:38:13.059Z,83.00
2018-09-09T20:40:47.497Z,82.00
2018-09-09T20:43:22.159Z,81.50
2018-09-09T20:45:56.722Z,82.60
2018-09-09T20:48:31.897Z,83.20
2018-09-09T20:51:06.375Z,83.20
2018-09-09T20:53:42.728Z,83.40
2018-09-09T20:56:17.210Z,83.40
2018-09-09T20:58:53.483Z,83.40
2018-09-09T21:01:28.181Z,82.30
2018-09-09T21:04:02.944Z,82.60
2018-09-09T21:06:39.063Z,82.50
2018-09-09T21:09:14.933Z,82.20
2018-09-09T21:11:51.452Z,82.20
2018-09-09T21:14:26.202Z,83.10
2018-09-09T21:17:03.432Z,83.70
2018-09-09T21:19:39.755Z,83.90
2018-09-09T21:22:15.483Z,84.20
2018-09-09T21:24:51.484Z,84.30
2018-09-09T21:27:27.479Z,84.70
2018-09-09T21:30:12.131Z,84.40
2018-09-09T21:32:46.933Z,84.20
2018-09-09T21:35:21.580Z,83.80
2018-09-09T21:37:55.985Z,83.70
2018-09-09T21:40:30.907Z,83.50
2018-09-09T21:43:05.523Z,84.20
2018-09-09T21:45:41.388Z,84.40
2018-09-09T21:48:15.991Z,84.70
2018-09-09T21:50:51.697Z,84.50
2018-09-09T21:54:50.851Z,84.10
2018-09-09T21:57:26.971Z,84.10
2018-09-09T22:00:01.971Z,84.40
2018-09-09T22:02:37.964Z,84.50
2018-09-09T22:05:13.811Z,84.80
2018-09-09T22:07:49.802Z,84.60
2018-09-09T22:10:25.935Z,84.80
2018-09-09T22:13:00.290Z,84.50
2018-09-09T22:15:36.281Z,85.00
2018-09-09T22:18:12.063Z,84.60
2018-09-09T22:20:46.512Z,84.20
2018-09-09T22:23:20.925Z,84.40
2018-09-09T22:25:56.542Z,84.20
2018-09-09T22:28:36.884Z,84.40
2018-09-09T22:31:12.775Z,84.50
2018-09-09T22:33:47.210Z,85.30
2018-09-09T22:36:21.548Z,85.10
2018-09-09T22:38:56.184Z,85.10
2018-09-09T22:41:30.454Z,85.60
2018-09-09T22:44:05.491Z,85.90
2018-09-09T22:46:39.927Z,87.00
2018-09-09T22:49:15.590Z,88.60
2018-09-09T22:51:50.088Z,81.70
2018-09-09T22:54:26.180Z,81.70
2018-09-09T22:57:00.527Z,82.00
2018-09-09T22:59:36.111Z,82.30
2018-09-09T23:02:10.455Z,82.30
2018-09-09T23:04:45.163Z,82.80
2018-09-09T23:07:20.915Z,83.40
2018-09-09T23:10:03.284Z,83.30
2018-09-09T23:12:38.705Z,84.00
2018-09-09T23:15:13.111Z,84.10
2018-09-09T23:17:48.815Z,84.30
2018-09-09T23:20:23.384Z,85.00
2018-09-09T23:22:57.816Z,84.50
2018-09-09T23:25:33.149Z,84.50
2018-09-09T23:28:08.603Z,84.60
2018-09-09T23:30:44.464Z,85.00
2018-09-09T23:33:18.766Z,85.20
2018-09-09T23:35:53.699Z,85.60
2018-09-09T23:38:28.195Z,85.50
2018-09-09T23:41:02.732Z,85.60
2018-09-09T23:43:42.888Z,85.70
2018-09-09T23:46:19.142Z,85.50
2018-09-09T23:48:53.675Z,85.40
2018-09-09T23:51:28.114Z,86.00
2018-09-09T23:54:02.559Z,86.00
2018-09-09T23:56:36.951Z,86.50
2018-09-09T23:59:11.289Z,87.00
